Time;durP1;ratioP1;P1;durP2;ratioP2;P2;SDS_P1;SDS_P2;PMS_P1;PMS_P2;Temp;Humidity;BMP_temperature;BMP_pressure;BME280_temperature;BME280_humidity;BME280_pressure;Samples;Min_cycle;Max_cycle;Signal;HPM_P1;HPM_P2
2023/11/15 00:02:06;;;;;;;14.17;7.60;;;11.40;99.90;;;;;;4997899;28;20455;-71
2023/11/15 00:04:33;;;;;;;10.83;6.90;;;11.40;99.90;;;;;;4999536;28;20459;-71
2023/11/15 00:07:00;;;;;;;14.20;7.00;;;11.40;99.90;;;;;;4997922;28;20919;-71
2023/11/15 00:09:29;;;;;;;13.30;7.70;;;11.40;99.90;;;;;;4998231;28;20472;-71
2023/11/15 00:11:57;;;;;;;12.30;7.47;;;11.40;99.90;;;;;;4999102;28;20802;-71
2023/11/15 00:14:24;;;;;;;19.60;8.80;;;11.40;99.90;;;;;;4998394;28;20489;-71
2023/11/15 00:16:51;;;;;;;13.47;7.27;;;11.40;99.90;;;;;;4997945;28;20448;-71
2023/11/15 00:19:23;;;;;;;10.73;6.73;;;11.40;99.90;;;;;;4996689;28;20483;-71
2023/11/15 00:21:56;;;;;;;14.90;7.20;;;11.40;99.90;;;;;;4998507;28;20437;-71
2023/11/15 00:24:27;;;;;;;16.33;6.30;;;11.40;99.90;;;;;;4998040;28;20444;-71
2023/11/15 00:26:55;;;;;;;9.63;6.17;;;11.40;99.90;;;;;;4996923;28;20448;-70
2023/11/15 00:29:23;;;;;;;16.60;6.57;;;11.40;99.90;;;;;;4996197;28;20472;-70
2023/11/15 00:31:49;;;;;;;14.50;6.97;;;11.50;99.90;;;;;;4997208;28;20452;-70
2023/11/15 00:34:16;;;;;;;17.50;7.67;;;11.40;99.90;;;;;;4997620;28;20452;-71
2023/11/15 00:36:45;;;;;;;12.57;6.00;;;11.50;99.90;;;;;;4997451;28;20449;-71
2023/11/15 00:39:15;;;;;;;10.30;5.83;;;11.50;99.90;;;;;;4995663;28;20476;-71
2023/11/15 00:41:42;;;;;;;16.10;6.30;;;11.50;99.90;;;;;;4997407;28;20499;-71
2023/11/15 00:44:09;;;;;;;14.53;5.77;;;11.50;99.90;;;;;;4996608;28;20958;-71
2023/11/15 00:46:38;;;;;;;14.43;5.83;;;11.50;99.90;;;;;;4997468;28;20479;-71
2023/11/15 00:49:06;;;;;;;11.30;6.27;;;11.50;99.90;;;;;;4996529;28;20468;-71
2023/11/15 00:51:33;;;;;;;14.53;6.70;;;11.50;99.90;;;;;;4996053;28;20502;-69
2023/11/15 00:54:00;;;;;;;16.53;6.70;;;11.50;99.90;;;;;;4994082;28;20448;-67
2023/11/15 00:56:29;;;;;;;16.80;6.17;;;11.50;99.90;;;;;;4995846;28;20455;-69
2023/11/15 00:58:57;;;;;;;14.47;6.23;;;11.50;99.90;;;;;;4995742;28;20531;-69
2023/11/15 01:01:25;;;;;;;14.33;5.03;;;11.50;99.90;;;;;;5003620;28;20441;-69
2023/11/15 01:03:57;;;;;;;13.20;6.23;;;11.50;99.90;;;;;;5003478;28;20476;-70
2023/11/15 01:06:28;;;;;;;15.60;6.40;;;11.50;99.90;;;;;;4999401;28;20439;-70
2023/11/15 01:08:56;;;;;;;16.17;6.33;;;11.50;99.90;;;;;;4998129;28;20528;-70
2023/11/15 01:11:26;;;;;;;14.60;7.53;;;11.60;99.90;;;;;;4997212;28;20946;-70
2023/11/15 01:13:56;;;;;;;21.33;6.23;;;11.60;99.90;;;;;;4997096;28;20492;-70
2023/11/15 01:16:23;;;;;;;16.37;5.63;;;11.50;99.90;;;;;;4998007;28;20516;-70
2023/11/15 01:18:53;;;;;;;12.60;5.60;;;11.50;99.90;;;;;;5013166;28;20452;-70
2023/11/15 01:21:21;;;;;;;10.83;4.93;;;11.50;99.90;;;;;;5004852;28;20490;-70
2023/11/15 01:23:48;;;;;;;14.60;6.00;;;11.50;99.90;;;;;;5000641;28;20989;-70
2023/11/15 01:26:18;;;;;;;19.43;6.57;;;11.50;99.90;;;;;;5000099;28;20527;-70
2023/11/15 01:28:45;;;;;;;15.23;5.60;;;11.50;99.90;;;;;;4997230;28;20452;-70
2023/11/15 01:31:14;;;;;;;16.37;7.37;;;11.60;99.90;;;;;;4998027;28;20472;-70
2023/11/15 01:33:44;;;;;;;14.67;6.00;;;11.50;99.90;;;;;;4996687;28;20448;-70
2023/11/15 01:36:12;;;;;;;12.30;6.37;;;11.60;99.90;;;;;;4997466;28;20873;-70
2023/11/15 01:38:42;;;;;;;15.43;6.17;;;11.60;99.90;;;;;;4996635;28;20455;-70
2023/11/15 01:41:09;;;;;;;11.60;5.43;;;11.60;99.90;;;;;;4996691;28;20491;-71
2023/11/15 01:43:36;;;;;;;15.17;6.20;;;11.50;99.90;;;;;;4995959;28;20453;-71
2023/11/15 01:46:05;;;;;;;12.73;5.90;;;11.60;99.90;;;;;;4995303;28;20877;-71
2023/11/15 01:48:32;;;;;;;12.20;5.47;;;11.50;99.90;;;;;;4995215;28;20455;-71
2023/11/15 01:51:00;;;;;;;12.60;6.00;;;11.60;99.90;;;;;;4996226;28;20459;-71
2023/11/15 01:53:30;;;;;;;14.43;6.30;;;11.60;99.90;;;;;;4994972;28;20942;-71
2023/11/15 01:56:00;;;;;;;15.60;5.47;;;11.60;99.90;;;;;;4996081;28;20452;-71
2023/11/15 01:58:26;;;;;;;11.83;5.67;;;11.60;99.90;;;;;;4995666;28;20456;-71
2023/11/15 02:00:54;;;;;;;23.40;7.70;;;11.60;99.90;;;;;;4998231;28;20491;-72
2023/11/15 02:03:21;;;;;;;10.10;5.97;;;11.50;99.90;;;;;;4999512;28;20456;-72
2023/11/15 02:05:49;;;;;;;19.80;6.23;;;11.50;99.90;;;;;;4999057;28;20455;-71
2023/11/15 02:08:19;;;;;;;11.30;6.30;;;11.60;99.90;;;;;;4998093;28;20531;-71
2023/11/15 02:10:51;;;;;;;16.17;6.17;;;11.50;99.90;;;;;;4999575;28;20547;-71
2023/11/15 02:13:28;;;;;;;10.30;6.70;;;11.50;99.90;;;;;;4998421;28;20454;-71
2023/11/15 02:15:57;;;;;;;16.80;5.70;;;11.50;99.90;;;;;;4998798;28;20859;-71
2023/11/15 02:18:26;;;;;;;13.20;6.10;;;11.50;99.90;;;;;;4998299;28;20448;-70
2023/11/15 02:20:53;;;;;;;21.30;6.60;;;11.50;99.90;;;;;;4998122;28;20487;-72
2023/11/15 02:23:21;;;;;;;12.23;5.93;;;11.50;99.90;;;;;;4997106;28;20942;-71
2023/11/15 02:25:51;;;;;;;18.83;6.00;;;11.50;99.90;;;;;;4998192;28;20448;-71
2023/11/15 02:28:21;;;;;;;12.83;5.70;;;11.50;99.90;;;;;;4997443;28;20487;-71
2023/11/15 02:30:51;;;;;;;12.83;5.77;;;11.50;99.90;;;;;;4998646;28;20507;-71
2023/11/15 02:33:19;;;;;;;10.93;5.97;;;11.60;99.90;;;;;;4998964;28;20425;-71
2023/11/15 02:35:46;;;;;;;15.70;5.80;;;11.60;99.90;;;;;;4997936;28;20827;-71
2023/11/15 02:38:15;;;;;;;16.00;6.90;;;11.60;99.90;;;;;;4999061;28;20455;-71
2023/11/15 02:40:42;;;;;;;16.27;5.47;;;11.60;99.90;;;;;;4999079;28;20499;-71
2023/11/15 02:43:10;;;;;;;10.33;5.90;;;11.60;99.90;;;;;;4997560;28;20452;-71
2023/11/15 02:45:37;;;;;;;14.50;4.60;;;11.60;99.90;;;;;;4999303;28;20444;-70
2023/11/15 02:48:08;;;;;;;13.70;5.30;;;11.60;99.90;;;;;;4998365;28;20813;-71
2023/11/15 02:50:36;;;;;;;13.33;5.13;;;11.70;99.90;;;;;;4996959;28;20998;-71
2023/11/15 02:53:05;;;;;;;13.67;5.40;;;11.60;99.90;;;;;;4996896;28;20453;-71
2023/11/15 02:55:32;;;;;;;11.90;5.20;;;11.60;99.90;;;;;;4998271;28;20456;-71
2023/11/15 02:58:00;;;;;;;20.87;5.93;;;11.60;99.90;;;;;;4996913;28;20448;-71
2023/11/15 03:00:30;;;;;;;10.90;5.10;;;11.60;99.90;;;;;;4998400;28;21060;-71
2023/11/15 03:02:58;;;;;;;13.90;5.20;;;11.60;99.90;;;;;;4998277;28;20467;-71
2023/11/15 03:05:24;;;;;;;15.23;6.30;;;11.50;99.90;;;;;;4996912;28;20458;-71
2023/11/15 03:07:52;;;;;;;8.57;4.90;;;11.60;99.90;;;;;;4996832;28;20507;-71
2023/11/15 03:10:20;;;;;;;10.57;5.50;;;11.60;99.90;;;;;;4997110;28;20472;-71
2023/11/15 03:12:48;;;;;;;15.17;5.07;;;11.60;99.90;;;;;;4998559;28;20448;-71
2023/11/15 03:15:15;;;;;;;7.00;5.20;;;11.60;99.90;;;;;;4998381;28;20475;-71
2023/11/15 03:17:48;;;;;;;13.63;5.43;;;11.50;99.90;;;;;;5016792;28;20527;-71
2023/11/15 03:20:15;;;;;;;16.83;6.30;;;11.50;99.90;;;;;;5006844;28;20510;-71
2023/11/15 03:22:42;;;;;;;14.70;5.60;;;11.50;99.90;;;;;;5004305;28;20459;-71
2023/11/15 03:25:10;;;;;;;13.27;5.70;;;11.50;99.90;;;;;;5002892;28;20455;-71
2023/11/15 03:27:38;;;;;;;15.10;5.83;;;11.50;99.90;;;;;;5000966;28;20551;-71
2023/11/15 03:30:07;;;;;;;16.10;4.47;;;11.50;99.90;;;;;;5000604;28;20468;-71
2023/11/15 03:32:32;;;;;;;14.47;5.20;;;11.50;99.90;;;;;;5000961;28;20448;-71
2023/11/15 03:35:01;;;;;;;13.93;4.37;;;11.50;99.90;;;;;;4999887;28;21004;-71
2023/11/15 03:37:30;;;;;;;13.57;5.13;;;11.50;99.90;;;;;;5013211;28;20205;-71
2023/11/15 03:39:58;;;;;;;21.13;4.53;;;11.60;99.90;;;;;;5014146;28;20472;-71
2023/11/15 03:42:24;;;;;;;10.73;4.33;;;11.50;99.90;;;;;;5014420;28;20529;-71
2023/11/15 03:44:53;;;;;;;16.47;4.10;;;11.40;99.90;;;;;;5008509;28;20849;-71
2023/11/15 03:47:21;;;;;;;18.83;4.43;;;11.50;99.90;;;;;;5002128;28;20452;-71
2023/11/15 03:49:51;;;;;;;8.63;4.70;;;11.50;99.90;;;;;;5001180;28;20464;-71
2023/11/15 03:52:20;;;;;;;20.27;4.57;;;11.60;99.90;;;;;;5000051;28;20459;-71
2023/11/15 03:54:47;;;;;;;11.40;4.43;;;11.60;99.90;;;;;;4999762;28;20455;-71
2023/11/15 03:57:15;;;;;;;14.00;4.27;;;11.50;99.90;;;;;;4998226;28;20440;-71
2023/11/15 03:59:44;;;;;;;14.50;4.13;;;11.50;99.90;;;;;;4997161;28;20473;-71
2023/11/15 04:02:11;;;;;;;11.77;4.33;;;11.60;99.90;;;;;;4998678;28;20484;-71
2023/11/15 04:04:38;;;;;;;9.33;3.87;;;11.60;99.90;;;;;;4996130;28;20445;-69
2023/11/15 04:07:07;;;;;;;14.20;4.50;;;11.60;99.90;;;;;;4995779;28;20448;-67
2023/11/15 04:09:37;;;;;;;10.70;4.40;;;11.60;99.90;;;;;;4978911;28;20543;-67
2023/11/15 04:12:04;;;;;;;10.43;4.23;;;11.50;99.90;;;;;;4995555;28;20444;-68
2023/11/15 04:14:31;;;;;;;12.63;4.47;;;11.50;99.90;;;;;;4995786;28;20452;-69
2023/11/15 04:17:05;;;;;;;17.03;4.83;;;11.50;99.90;;;;;;4995777;28;20440;-69
2023/11/15 04:19:32;;;;;;;16.17;5.17;;;11.60;99.90;;;;;;4996214;28;20533;-70
2023/11/15 04:21:59;;;;;;;7.27;4.20;;;11.50;99.90;;;;;;4994902;28;20920;-70
2023/11/15 04:24:26;;;;;;;14.70;4.57;;;11.50;99.90;;;;;;4995942;28;20444;-70
2023/11/15 04:26:54;;;;;;;12.03;4.20;;;11.40;99.90;;;;;;4995455;28;20456;-70
2023/11/15 04:29:24;;;;;;;13.37;4.70;;;11.40;99.90;;;;;;4995675;28;21001;-70
2023/11/15 04:31:54;;;;;;;11.80;5.17;;;11.40;99.90;;;;;;4995812;28;20476;-70
2023/11/15 04:34:21;;;;;;;14.93;4.27;;;11.40;99.90;;;;;;4995527;28;20873;-70
2023/11/15 04:36:48;;;;;;;14.20;4.20;;;11.40;99.90;;;;;;4994887;28;20455;-70
2023/11/15 04:39:15;;;;;;;14.37;4.40;;;11.40;99.90;;;;;;4994406;28;20510;-70
2023/11/15 04:41:42;;;;;;;9.67;4.17;;;11.50;99.90;;;;;;4994464;28;20484;-70
2023/11/15 04:44:11;;;;;;;18.00;5.70;;;11.40;99.90;;;;;;4995701;28;20452;-70
2023/11/15 04:46:40;;;;;;;15.57;4.93;;;11.40;99.90;;;;;;4978017;28;20536;-70
2023/11/15 04:49:07;;;;;;;15.43;4.83;;;11.40;99.90;;;;;;4994077;28;20555;-70
2023/11/15 04:51:39;;;;;;;13.90;4.83;;;11.40;99.90;;;;;;4994396;28;20448;-70
2023/11/15 04:54:06;;;;;;;13.53;4.37;;;11.40;99.90;;;;;;4995381;28;20811;-70
2023/11/15 04:56:34;;;;;;;17.27;3.83;;;11.40;99.90;;;;;;4995460;28;20458;-71
2023/11/15 04:59:01;;;;;;;11.33;3.97;;;11.40;99.90;;;;;;4995361;28;20479;-71
2023/11/15 05:01:30;;;;;;;15.00;4.67;;;11.50;99.90;;;;;;4995025;28;20492;-71
2023/11/15 05:03:59;;;;;;;13.00;3.90;;;11.50;99.90;;;;;;4995220;28;21016;-71
2023/11/15 05:06:26;;;;;;;17.83;5.40;;;11.50;99.90;;;;;;4995209;28;20437;-71
2023/11/15 05:08:54;;;;;;;8.40;3.87;;;11.50;99.90;;;;;;4994271;28;20480;-71
2023/11/15 05:11:24;;;;;;;10.60;3.80;;;11.40;99.90;;;;;;4995273;28;20460;-71
2023/11/15 05:13:54;;;;;;;9.43;4.00;;;11.50;99.90;;;;;;4995076;28;20543;-71
2023/11/15 05:16:21;;;;;;;14.27;3.73;;;11.50;99.90;;;;;;4995002;28;20516;-71
2023/11/15 05:21:33;;;;;;;14.40;4.33;;;11.50;99.90;;;;;;4995070;28;20559;-71
2023/11/15 05:24:00;;;;;;;20.10;4.33;;;11.50;99.90;;;;;;4994985;28;20471;-71
2023/11/15 05:26:27;;;;;;;15.10;4.43;;;11.50;99.90;;;;;;4994869;28;20480;-71
2023/11/15 05:28:54;;;;;;;9.20;3.40;;;11.50;99.90;;;;;;4994654;28;20465;-71
2023/11/15 05:31:23;;;;;;;15.53;3.57;;;11.50;99.90;;;;;;4995322;28;20467;-71
2023/11/15 05:33:52;;;;;;;11.13;3.30;;;11.40;99.90;;;;;;4993755;28;20459;-71
2023/11/15 05:36:19;;;;;;;13.17;3.30;;;11.40;99.90;;;;;;4997999;28;20522;-71
2023/11/15 05:38:47;;;;;;;17.97;4.10;;;11.30;99.90;;;;;;4998319;28;20457;-71
2023/11/15 05:41:21;;;;;;;17.17;4.50;;;11.30;99.90;;;;;;4998246;28;20483;-70
2023/11/15 05:43:50;;;;;;;11.47;4.40;;;11.40;99.90;;;;;;4996938;28;20443;-70
2023/11/15 05:46:17;;;;;;;11.53;5.17;;;11.40;99.90;;;;;;4998532;28;20444;-69
2023/11/15 05:48:44;;;;;;;16.23;4.30;;;11.40;99.90;;;;;;4998034;28;20444;-69
2023/11/15 05:51:12;;;;;;;14.90;4.20;;;11.30;99.90;;;;;;4998538;28;20444;-68
2023/11/15 05:53:39;;;;;;;15.90;4.50;;;11.40;99.90;;;;;;5000093;28;20811;-69
2023/11/15 05:56:07;;;;;;;14.00;4.00;;;11.40;99.90;;;;;;5013215;28;20448;-70
2023/11/15 05:58:35;;;;;;;13.83;5.13;;;11.40;99.90;;;;;;5004975;28;20463;-70
2023/11/15 06:01:01;;;;;;;14.37;4.60;;;11.40;99.90;;;;;;5002802;28;20479;-70
2023/11/15 06:03:28;;;;;;;16.63;4.53;;;11.40;99.90;;;;;;4999792;28;20455;-70
2023/11/15 06:05:55;;;;;;;7.30;3.70;;;11.30;99.90;;;;;;4998932;28;20522;-70
2023/11/15 06:08:27;;;;;;;12.63;4.07;;;11.30;99.90;;;;;;4997945;28;20448;-70
2023/11/15 06:10:54;;;;;;;18.00;5.40;;;11.40;99.90;;;;;;4998238;28;20539;-70
2023/11/15 06:13:27;;;;;;;18.27;5.13;;;11.40;99.90;;;;;;4981340;28;20471;-70
2023/11/15 06:15:57;;;;;;;16.67;4.77;;;11.40;99.90;;;;;;4998176;28;20452;-70
2023/11/15 06:18:24;;;;;;;15.03;5.57;;;11.40;99.90;;;;;;4999702;28;20502;-70
2023/11/15 06:20:54;;;;;;;14.70;5.33;;;11.40;99.90;;;;;;5000999;28;20530;-70
2023/11/15 06:23:21;;;;;;;12.53;4.50;;;11.40;99.90;;;;;;5004660;28;20449;-70
2023/11/15 06:25:50;;;;;;;16.30;5.27;;;11.40;99.90;;;;;;5000641;28;20823;-70
2023/11/15 06:28:20;;;;;;;16.70;4.87;;;11.40;99.90;;;;;;4998779;28;20846;-70
2023/11/15 06:30:48;;;;;;;13.43;4.57;;;11.50;99.90;;;;;;4999205;28;20887;-70
2023/11/15 06:33:15;;;;;;;21.40;4.70;;;11.40;99.90;;;;;;4998343;28;20448;-69
2023/11/15 06:35:44;;;;;;;15.70;4.90;;;11.40;99.90;;;;;;4998010;28;20444;-69
2023/11/15 06:38:10;;;;;;;15.40;5.30;;;11.40;99.90;;;;;;4997552;28;20464;-69
2023/11/15 06:40:39;;;;;;;12.07;4.47;;;11.40;99.90;;;;;;4997454;28;20468;-69
2023/11/15 06:43:07;;;;;;;25.87;5.70;;;11.40;99.90;;;;;;4996143;28;20508;-69
2023/11/15 06:45:33;;;;;;;13.23;4.50;;;11.40;99.90;;;;;;4996989;28;20451;-70
2023/11/15 06:48:07;;;;;;;15.80;4.90;;;11.40;99.90;;;;;;4997120;28;20451;-70
2023/11/15 06:50:34;;;;;;;8.90;4.50;;;11.40;99.90;;;;;;4997349;28;20475;-70
2023/11/15 06:53:01;;;;;;;11.40;4.80;;;11.40;99.90;;;;;;4996673;28;20523;-69
2023/11/15 06:55:28;;;;;;;12.53;4.73;;;11.40;99.90;;;;;;4996738;28;20484;-70
2023/11/15 06:57:55;;;;;;;21.80;6.33;;;11.40;99.90;;;;;;4995994;28;20449;-70
2023/11/15 07:00:25;;;;;;;16.13;5.90;;;11.40;99.90;;;;;;4997147;28;20472;-70
2023/11/15 07:02:52;;;;;;;22.13;5.63;;;11.30;99.90;;;;;;4996025;28;20476;-70
2023/11/15 07:05:19;;;;;;;16.03;5.37;;;11.30;99.90;;;;;;4996956;28;20448;-70
2023/11/15 07:07:46;;;;;;;12.93;5.20;;;11.40;99.90;;;;;;4996443;28;20444;-70
2023/11/15 07:10:15;;;;;;;13.47;5.87;;;11.40;99.90;;;;;;4996098;28;20480;-70
2023/11/15 07:12:42;;;;;;;16.23;5.43;;;11.40;99.90;;;;;;4996425;28;20946;-70
2023/11/15 07:15:14;;;;;;;15.87;5.63;;;11.40;99.90;;;;;;4996780;28;20452;-70
2023/11/15 07:17:46;;;;;;;18.10;5.50;;;11.30;99.90;;;;;;4997055;28;20440;-69
2023/11/15 07:20:14;;;;;;;16.80;5.33;;;11.40;99.90;;;;;;5008247;28;20974;-69
2023/11/15 07:22:41;;;;;;;13.40;5.23;;;11.40;99.90;;;;;;4991923;28;20480;-69
2023/11/15 07:25:12;;;;;;;14.70;5.60;;;11.40;99.90;;;;;;4995754;28;20456;-69
2023/11/15 07:27:39;;;;;;;15.67;4.50;;;11.50;99.90;;;;;;4988397;28;20942;-69
2023/11/15 07:30:08;;;;;;;17.87;4.97;;;11.50;99.90;;;;;;4986493;28;20466;-69
2023/11/15 07:32:36;;;;;;;15.07;5.80;;;11.50;99.90;;;;;;4997891;28;20453;-69
2023/11/15 07:35:06;;;;;;;12.73;4.40;;;11.50;99.90;;;;;;5001026;28;20454;-69
2023/11/15 07:37:34;;;;;;;19.50;5.30;;;11.50;99.90;;;;;;4998530;28;20938;-69
2023/11/15 07:40:02;;;;;;;14.30;4.77;;;11.50;99.90;;;;;;4999512;28;20902;-69
2023/11/15 07:42:29;;;;;;;20.47;4.53;;;11.50;99.90;;;;;;4998807;28;20535;-69
2023/11/15 07:44:57;;;;;;;12.73;5.20;;;11.50;99.90;;;;;;4998292;28;20452;-69
2023/11/15 07:47:25;;;;;;;17.77;5.57;;;11.50;99.90;;;;;;4997120;28;20460;-69
2023/11/15 07:49:52;;;;;;;10.63;4.10;;;11.50;99.90;;;;;;4998088;28;20484;-69
2023/11/15 07:52:25;;;;;;;14.07;4.07;;;11.50;99.90;;;;;;4996219;28;20441;-70
2023/11/15 07:54:53;;;;;;;23.43;5.80;;;11.60;99.90;;;;;;4996779;28;20443;-70
2023/11/15 07:57:21;;;;;;;14.37;5.27;;;11.60;99.90;;;;;;4994840;28;20449;-70
2023/11/15 07:59:51;;;;;;;18.10;5.63;;;11.60;99.90;;;;;;4997154;28;20511;-70
2023/11/15 08:02:18;;;;;;;20.07;4.77;;;11.70;99.90;;;;;;4995844;28;20561;-70
2023/11/15 08:04:45;;;;;;;17.87;4.80;;;11.60;99.90;;;;;;4979237;28;20480;-70
2023/11/15 08:07:12;;;;;;;9.93;3.57;;;11.70;99.90;;;;;;4976944;28;20836;-70
2023/11/15 08:09:42;;;;;;;18.07;5.53;;;11.80;99.90;;;;;;4991596;28;20539;-70
2023/11/15 08:12:09;;;;;;;15.03;4.00;;;11.80;99.90;;;;;;5006453;28;20456;-70
2023/11/15 08:14:36;;;;;;;21.17;4.37;;;11.80;99.90;;;;;;4998810;28;20455;-70
2023/11/15 08:17:06;;;;;;;14.53;5.23;;;11.70;99.90;;;;;;4997843;28;20455;-70
2023/11/15 08:19:32;;;;;;;17.80;5.10;;;11.80;99.90;;;;;;4996395;28;20986;-70
2023/11/15 08:21:59;;;;;;;11.83;4.27;;;11.80;99.90;;;;;;4996038;28;20495;-70
2023/11/15 08:24:27;;;;;;;19.80;4.50;;;11.80;99.90;;;;;;4996076;28;20450;-70
2023/11/15 08:26:57;;;;;;;11.87;3.37;;;11.90;99.90;;;;;;4996497;28;20452;-70
2023/11/15 08:29:24;;;;;;;11.87;3.70;;;11.80;99.90;;;;;;4995254;28;20997;-70
2023/11/15 08:31:51;;;;;;;11.77;3.83;;;11.90;99.90;;;;;;4995375;28;20467;-70
2023/11/15 08:34:17;;;;;;;17.43;4.50;;;11.90;99.90;;;;;;4994059;28;20444;-70
2023/11/15 08:36:44;;;;;;;10.20;4.33;;;11.90;99.90;;;;;;4994969;28;20451;-70
2023/11/15 08:39:12;;;;;;;19.83;4.67;;;12.00;99.90;;;;;;4993556;28;20232;-70
2023/11/15 08:41:41;;;;;;;11.13;3.73;;;12.00;99.90;;;;;;4994631;28;20456;-70
2023/11/15 08:44:10;;;;;;;15.43;4.37;;;12.10;99.90;;;;;;4995899;28;20478;-70
2023/11/15 08:46:42;;;;;;;13.00;4.10;;;12.10;99.90;;;;;;4994780;28;20451;-70
2023/11/15 08:49:18;;;;;;;9.97;3.10;;;12.20;99.90;;;;;;4995357;28;20464;-70
2023/11/15 08:51:50;;;;;;;11.50;3.80;;;12.30;99.90;;;;;;4994778;28;20846;-70
2023/11/15 08:54:17;;;;;;;13.77;3.97;;;12.30;99.90;;;;;;4993498;28;20507;-70
2023/11/15 08:56:47;;;;;;;11.20;3.27;;;12.20;99.90;;;;;;4994385;28;20452;-70
2023/11/15 08:59:15;;;;;;;16.93;3.93;;;12.30;99.90;;;;;;5001520;28;20473;-70
2023/11/15 09:01:44;;;;;;;16.10;3.50;;;12.30;99.90;;;;;;4997476;28;20452;-70
2023/11/15 09:04:12;;;;;;;7.47;2.60;;;12.40;99.90;;;;;;4996052;28;20506;-70
2023/11/15 09:06:40;;;;;;;13.87;3.10;;;12.40;99.90;;;;;;4994983;28;20539;-70
2023/11/15 09:09:14;;;;;;;12.20;3.27;;;12.50;99.90;;;;;;4993853;28;21001;-70
2023/11/15 09:11:43;;;;;;;10.30;2.97;;;12.50;99.90;;;;;;4997743;28;20448;-70
2023/11/15 09:14:10;;;;;;;8.00;2.70;;;12.50;99.90;;;;;;4999038;28;20458;-70
2023/11/15 09:16:44;;;;;;;9.77;3.07;;;12.60;99.90;;;;;;4998165;28;20968;-70
2023/11/15 09:19:15;;;;;;;12.00;3.40;;;12.60;99.90;;;;;;4998081;28;20468;-70
2023/11/15 09:21:43;;;;;;;13.10;3.73;;;12.70;99.90;;;;;;4997831;28;20458;-70
2023/11/15 09:24:10;;;;;;;9.17;3.20;;;12.70;99.90;;;;;;4998335;28;20450;-70
2023/11/15 09:26:37;;;;;;;10.23;3.37;;;12.70;99.90;;;;;;4998510;28;20471;-70
2023/11/15 09:29:08;;;;;;;6.77;2.70;;;12.80;99.90;;;;;;4997890;28;20468;-70
2023/11/15 09:31:37;;;;;;;10.00;2.33;;;12.80;99.90;;;;;;4999501;28;20505;-69
2023/11/15 09:34:07;;;;;;;11.80;3.23;;;12.80;99.90;;;;;;4998281;28;20495;-70
2023/11/15 09:36:36;;;;;;;18.63;3.67;;;12.80;99.90;;;;;;4997370;28;20535;-70
2023/11/15 09:39:05;;;;;;;10.57;3.80;;;12.80;99.90;;;;;;4996799;28;20491;-70
2023/11/15 09:41:33;;;;;;;12.17;3.70;;;12.80;99.90;;;;;;4998283;28;20463;-70
2023/11/15 09:44:09;;;;;;;19.33;3.80;;;12.80;99.90;;;;;;4997907;28;20487;-70
2023/11/15 09:46:38;;;;;;;10.50;2.87;;;12.90;99.90;;;;;;4997851;28;20675;-70
2023/11/15 09:49:07;;;;;;;9.37;2.90;;;12.80;99.90;;;;;;4996593;28;20838;-70
2023/11/15 09:51:35;;;;;;;10.27;3.10;;;12.90;99.90;;;;;;4997515;28;20448;-69
2023/11/15 09:54:06;;;;;;;6.30;2.83;;;12.80;99.90;;;;;;4997545;28;20444;-70
2023/11/15 09:56:34;;;;;;;7.97;3.40;;;12.80;99.90;;;;;;4997636;28;20433;-70
2023/11/15 09:59:02;;;;;;;8.33;2.87;;;12.80;99.90;;;;;;4997437;28;20468;-70
2023/11/15 10:01:29;;;;;;;11.30;2.80;;;12.80;99.90;;;;;;4996328;28;20455;-70
2023/11/15 10:03:59;;;;;;;16.57;3.13;;;12.90;99.90;;;;;;4997740;28;20894;-70
2023/11/15 10:06:39;;;;;;;6.57;2.60;;;13.10;99.90;;;;;;4997842;28;20452;-70
2023/11/15 10:09:07;;;;;;;10.67;3.17;;;13.10;99.90;;;;;;4997235;28;20558;-70
2023/11/15 10:11:37;;;;;;;12.53;3.20;;;13.20;99.90;;;;;;4996220;28;20459;-69
2023/11/15 10:14:09;;;;;;;8.60;2.50;;;13.20;99.90;;;;;;4997628;28;20793;-70
2023/11/15 10:16:39;;;;;;;13.00;3.27;;;13.10;99.90;;;;;;4997226;28;20452;-70
2023/11/15 10:19:24;;;;;;;11.73;2.87;;;13.10;99.90;;;;;;4997394;28;20472;-70
2023/11/15 10:21:58;;;;;;;13.43;2.73;;;13.10;99.90;;;;;;4995649;28;20448;-70
2023/11/15 10:24:28;;;;;;;8.87;3.20;;;13.10;99.90;;;;;;4997140;28;20452;-70
2023/11/15 10:26:59;;;;;;;7.60;2.50;;;13.20;99.90;;;;;;5011273;28;20456;-70
2023/11/15 10:29:27;;;;;;;11.00;3.17;;;13.20;99.90;;;;;;5002281;28;20468;-70
2023/11/15 10:32:00;;;;;;;8.00;3.63;;;13.20;99.90;;;;;;4999231;28;20480;-70
2023/11/15 10:34:32;;;;;;;11.30;3.13;;;13.20;99.90;;;;;;4998334;28;20463;-70
2023/11/15 10:37:11;;;;;;;10.40;3.30;;;13.20;99.90;;;;;;4981308;28;20576;-70
2023/11/15 10:39:43;;;;;;;9.97;2.83;;;13.30;99.90;;;;;;4996772;28;21040;-70
2023/11/15 10:42:15;;;;;;;17.40;3.20;;;13.40;99.90;;;;;;4997204;28;20531;-70
2023/11/15 10:44:47;;;;;;;12.17;3.30;;;13.70;99.90;;;;;;4996551;28;20876;-70
2023/11/15 10:47:19;;;;;;;12.00;3.93;;;14.00;99.90;;;;;;4996809;28;20452;-70
2023/11/15 10:49:54;;;;;;;6.97;2.20;;;14.30;99.70;;;;;;4995789;28;20479;-70
2023/11/15 10:52:24;;;;;;;7.73;2.40;;;14.60;98.70;;;;;;4997287;28;20433;-70
2023/11/15 10:54:55;;;;;;;8.43;2.70;;;14.80;97.60;;;;;;4995505;28;20456;-70
2023/11/15 10:57:27;;;;;;;18.23;3.07;;;14.80;96.60;;;;;;4996243;28;20484;-70
2023/11/15 10:59:56;;;;;;;11.63;2.13;;;15.00;96.60;;;;;;4996539;28;20994;-70
2023/11/15 11:02:25;;;;;;;10.53;3.60;;;15.00;96.80;;;;;;4996518;28;20448;-70
2023/11/15 11:04:53;;;;;;;9.77;2.73;;;15.20;95.60;;;;;;4996263;28;20511;-70
2023/11/15 11:07:30;;;;;;;8.23;2.67;;;15.10;95.50;;;;;;4996434;28;20449;-70
2023/11/15 11:10:04;;;;;;;7.30;2.30;;;15.20;95.10;;;;;;4996201;28;20479;-70
2023/11/15 11:12:34;;;;;;;4.53;2.40;;;15.30;94.40;;;;;;4996528;28;20455;-70
2023/11/15 11:15:30;;;;;;;5.63;2.23;;;15.40;93.90;;;;;;5004172;28;20444;-70
2023/11/15 11:18:05;;;;;;;7.67;2.30;;;15.40;94.40;;;;;;5003532;28;20485;-70
2023/11/15 11:20:35;;;;;;;11.00;2.80;;;15.40;94.60;;;;;;4998532;28;20470;-70
2023/11/15 11:23:19;;;;;;;12.97;3.00;;;15.40;95.10;;;;;;4997809;28;20487;-70
2023/11/15 11:25:47;;;;;;;7.70;1.93;;;15.40;93.90;;;;;;4996479;28;20495;-70
2023/11/15 11:28:15;;;;;;;8.30;2.93;;;15.40;93.60;;;;;;4997494;28;20448;-70
2023/11/15 11:30:44;;;;;;;12.20;2.50;;;15.50;93.70;;;;;;4995740;28;20552;-70
2023/11/15 11:33:15;;;;;;;8.73;2.63;;;15.60;93.90;;;;;;4996068;28;20950;-70
2023/11/15 11:35:43;;;;;;;12.67;2.27;;;15.80;92.70;;;;;;4996095;28;20429;-70
2023/11/15 11:38:42;;;;;;;9.33;2.67;;;15.90;91.80;;;;;;5003852;28;20485;-70
2023/11/15 11:41:11;;;;;;;8.63;2.43;;;16.10;91.40;;;;;;5006273;28;20829;-70
2023/11/15 11:43:41;;;;;;;8.17;2.10;;;16.30;91.00;;;;;;4999217;28;20560;-70
2023/11/15 11:46:17;;;;;;;12.70;2.37;;;16.30;90.00;;;;;;4996390;28;20456;-69
2023/11/15 11:48:47;;;;;;;8.23;2.77;;;16.30;90.90;;;;;;4996502;28;20522;-71
2023/11/15 11:51:17;;;;;;;11.83;2.27;;;16.40;90.70;;;;;;4996469;28;21000;-71
2023/11/15 11:53:49;;;;;;;7.80;2.03;;;16.70;90.40;;;;;;4995798;28;20445;-71
2023/11/15 11:56:16;;;;;;;7.37;2.53;;;16.70;86.80;;;;;;4996372;28;20505;-71
2023/11/15 11:58:44;;;;;;;8.47;2.20;;;16.60;89.00;;;;;;4995956;28;20455;-71
2023/11/15 12:01:12;;;;;;;5.43;1.93;;;16.20;89.90;;;;;;4996351;28;20448;-71
2023/11/15 12:03:47;;;;;;;8.23;2.20;;;16.00;90.50;;;;;;4995749;28;20491;-70
2023/11/15 12:06:14;;;;;;;8.90;2.33;;;16.10;90.50;;;;;;4996052;28;20447;-71
2023/11/15 12:08:48;;;;;;;4.00;1.67;;;16.10;88.40;;;;;;4996208;28;20810;-71
2023/11/15 12:11:21;;;;;;;5.77;1.93;;;16.20;88.00;;;;;;4994820;28;20488;-71
2023/11/15 12:13:52;;;;;;;4.40;1.60;;;16.20;85.90;;;;;;4997024;28;20602;-71
2023/11/15 12:16:21;;;;;;;9.77;2.40;;;16.40;86.10;;;;;;4996058;28;20475;-71
2023/11/15 12:19:03;;;;;;;7.37;2.20;;;16.20;85.10;;;;;;4994942;28;20444;-71
2023/11/15 12:21:33;;;;;;;4.80;1.97;;;16.20;85.80;;;;;;4996080;28;20479;-71
2023/11/15 12:24:06;;;;;;;5.93;1.50;;;16.40;86.70;;;;;;4995698;28;20490;-71
2023/11/15 12:26:58;;;;;;;3.90;1.53;;;16.80;83.60;;;;;;4995290;28;20448;-71
2023/11/15 12:29:26;;;;;;;8.70;1.67;;;16.90;81.90;;;;;;4995692;28;20538;-71
2023/11/15 12:31:54;;;;;;;8.17;2.00;;;17.20;82.60;;;;;;4995342;28;20949;-71
2023/11/15 12:34:28;;;;;;;8.10;2.37;;;17.40;81.60;;;;;;4994940;28;20440;-71
2023/11/15 12:36:57;;;;;;;7.77;2.00;;;17.60;79.40;;;;;;4996809;28;20448;-70
2023/11/15 12:39:42;;;;;;;7.27;1.87;;;17.70;79.10;;;;;;5008732;28;20468;-71
2023/11/15 12:42:13;;;;;;;2.93;1.43;;;17.80;75.80;;;;;;5000521;28;20428;-71
2023/11/15 12:44:49;;;;;;;4.13;1.47;;;17.90;78.20;;;;;;4998393;28;20477;-71
2023/11/15 12:47:17;;;;;;;3.90;1.47;;;18.30;76.30;;;;;;4996875;28;20448;-71
2023/11/15 12:49:45;;;;;;;1.60;1.17;;;18.50;74.30;;;;;;4995417;28;20475;-71
2023/11/15 12:52:12;;;;;;;4.90;1.70;;;18.60;73.00;;;;;;4993821;28;20456;-71